Time;durP1;ratioP1;P1;durP2;ratioP2;P2;SDS_P1;SDS_P2;PMS_P1;PMS_P2;Temp;Humidity;BMP_temperature;BMP_pressure;BME280_temperature;BME280_humidity;BME280_pressure;Samples;Min_cycle;Max_cycle;Signal;HPM_P1;HPM_P2
2023/01/18 00:01:58;;;;;;;5.73;3.60;;;4.70;99.90;;;;;;7387966;19;20633;-73
2023/01/18 00:04:23;;;;;;;7.47;3.93;;;4.70;99.90;;;;;;7389729;19;20139;-76
2023/01/18 00:06:49;;;;;;;6.13;3.73;;;4.30;99.90;;;;;;7386518;19;20521;-74
2023/01/18 00:09:15;;;;;;;6.63;4.30;;;4.20;99.90;;;;;;7386886;19;20142;-74
2023/01/18 00:11:41;;;;;;;5.63;3.57;;;3.90;99.90;;;;;;7388955;19;20146;-73
2023/01/18 00:14:07;;;;;;;6.80;3.63;;;4.10;99.90;;;;;;7393104;19;20146;-73
2023/01/18 00:16:32;;;;;;;6.57;3.90;;;4.60;99.90;;;;;;7392830;19;20517;-74
2023/01/18 00:18:59;;;;;;;7.97;4.27;;;4.80;99.90;;;;;;7393613;19;20130;-74
2023/01/18 00:21:26;;;;;;;8.70;4.40;;;4.90;99.90;;;;;;7393520;19;20150;-74
2023/01/18 00:23:54;;;;;;;6.37;4.67;;;4.90;99.90;;;;;;7392638;19;20142;-74
2023/01/18 00:26:20;;;;;;;6.50;4.70;;;4.90;99.90;;;;;;7392443;19;20151;-74
2023/01/18 00:28:45;;;;;;;8.57;4.53;;;4.90;99.90;;;;;;7393128;19;20146;-74
2023/01/18 00:31:14;;;;;;;7.00;4.43;;;5.00;99.90;;;;;;7391569;19;20583;-74
2023/01/18 00:33:47;;;;;;;6.83;4.33;;;5.00;99.90;;;;;;7392374;19;20159;-74
2023/01/18 00:36:14;;;;;;;6.57;4.47;;;5.10;99.90;;;;;;7391483;19;20153;-74
2023/01/18 00:38:40;;;;;;;6.43;4.53;;;4.90;99.90;;;;;;7392283;19;20146;-75
2023/01/18 00:41:06;;;;;;;6.53;4.63;;;4.90;99.90;;;;;;7393736;19;20131;-73
2023/01/18 00:43:40;;;;;;;8.57;5.63;;;5.00;99.90;;;;;;7390133;19;20591;-73
2023/01/18 00:46:12;;;;;;;5.47;4.60;;;4.90;99.90;;;;;;7393264;19;20138;-73
2023/01/18 00:48:38;;;;;;;9.37;5.67;;;4.50;99.90;;;;;;7393802;19;20178;-74
2023/01/18 00:51:05;;;;;;;7.60;5.27;;;4.60;99.90;;;;;;7390964;19;20491;-74
2023/01/18 00:53:31;;;;;;;8.67;5.73;;;4.90;99.90;;;;;;7390819;19;20153;-74
2023/01/18 00:55:57;;;;;;;8.63;5.50;;;4.90;99.90;;;;;;7394976;19;20139;-74
2023/01/18 00:58:23;;;;;;;8.77;5.30;;;5.00;99.90;;;;;;7388426;19;20146;-74
2023/01/18 01:00:52;;;;;;;9.13;6.33;;;5.00;99.90;;;;;;7391087;19;20186;-74
2023/01/18 01:03:21;;;;;;;7.17;5.47;;;5.10;99.90;;;;;;7392212;19;20171;-74
2023/01/18 01:08:32;;;;;;;11.03;6.10;;;5.10;99.90;;;;;;7391833;19;20147;-73
2023/01/18 01:11:09;;;;;;;8.10;6.00;;;5.00;99.90;;;;;;7389497;19;20150;-75
2023/01/18 01:27:26;;;;;;;7.83;6.00;;;5.00;99.90;;;;;;7390631;19;20155;-73
2023/01/18 01:29:51;;;;;;;8.27;5.93;;;5.00;99.90;;;;;;7392981;19;20154;-74
2023/01/18 01:32:17;;;;;;;10.33;6.43;;;4.90;99.90;;;;;;7389904;19;20602;-73
2023/01/18 01:34:43;;;;;;;8.50;6.50;;;4.90;99.90;;;;;;7391250;19;20148;-74
2023/01/18 01:37:09;;;;;;;9.17;6.00;;;5.00;99.90;;;;;;7391483;19;20138;-74
2023/01/18 01:39:34;;;;;;;8.57;6.53;;;5.00;99.90;;;;;;7392645;19;20138;-74
2023/01/18 01:42:00;;;;;;;7.80;6.33;;;5.00;99.90;;;;;;7390485;19;20250;-73
2023/01/18 01:44:28;;;;;;;8.40;5.80;;;5.10;99.90;;;;;;7391801;19;20138;-74
2023/01/18 01:46:58;;;;;;;8.43;6.13;;;5.10;99.90;;;;;;7388664;19;20155;-73
2023/01/18 01:49:31;;;;;;;8.43;6.43;;;5.10;99.90;;;;;;7392309;19;20127;-74
2023/01/18 01:52:07;;;;;;;7.60;5.73;;;5.10;99.90;;;;;;7390110;19;22336;-73
2023/01/18 01:54:46;;;;;;;9.13;6.20;;;5.10;99.90;;;;;;7391504;19;20449;-74
2023/01/18 01:57:20;;;;;;;9.03;6.83;;;5.10;99.90;;;;;;7390694;19;20225;-74
2023/01/18 02:00:11;;;;;;;8.73;6.47;;;5.10;99.90;;;;;;7388298;19;20149;-73
2023/01/18 02:02:38;;;;;;;8.27;6.10;;;5.10;99.90;;;;;;7393921;19;20135;-74
2023/01/18 02:05:06;;;;;;;7.87;6.40;;;5.10;99.90;;;;;;7388382;19;20159;-74
2023/01/18 02:07:32;;;;;;;8.70;6.70;;;5.10;99.90;;;;;;7393150;19;20131;-74
2023/01/18 02:10:00;;;;;;;7.67;6.20;;;5.20;99.90;;;;;;7390251;19;20385;-74
2023/01/18 02:12:27;;;;;;;8.83;6.80;;;5.10;99.90;;;;;;7392121;19;20135;-74
2023/01/18 02:14:54;;;;;;;8.37;5.77;;;5.10;99.90;;;;;;7390881;19;20146;-74
2023/01/18 02:17:27;;;;;;;9.57;6.57;;;5.20;99.90;;;;;;7393518;19;20752;-74
2023/01/18 02:20:30;;;;;;;7.70;5.83;;;5.10;99.90;;;;;;7392783;19;20554;-73
2023/01/18 02:23:21;;;;;;;6.83;5.40;;;5.10;99.90;;;;;;7391770;19;20619;-74
2023/01/18 02:26:40;;;;;;;7.17;5.93;;;5.10;99.90;;;;;;7387964;19;20170;-75
2023/01/18 02:29:16;;;;;;;7.70;5.30;;;5.00;99.90;;;;;;7387855;19;20146;-74
2023/01/18 02:32:14;;;;;;;6.73;5.33;;;5.00;99.90;;;;;;7391669;19;20149;-73
2023/01/18 02:34:48;;;;;;;7.33;5.90;;;5.00;99.90;;;;;;7392299;19;20138;-74
2023/01/18 02:37:42;;;;;;;8.03;6.00;;;5.00;99.90;;;;;;7391775;19;20153;-75
2023/01/18 02:40:21;;;;;;;9.40;5.77;;;5.00;99.90;;;;;;7389344;19;20150;-73
2023/01/18 02:48:42;;;;;;;8.73;6.40;;;5.00;99.90;;;;;;7389976;19;20570;-74
2023/01/18 02:51:08;;;;;;;7.57;6.10;;;5.10;99.90;;;;;;7388983;19;20443;-73
2023/01/18 02:53:41;;;;;;;8.20;6.40;;;5.10;99.90;;;;;;7389800;19;21867;-73
2023/01/18 02:56:46;;;;;;;8.40;6.30;;;4.90;99.90;;;;;;7389502;19;20159;-74
2023/01/18 02:59:30;;;;;;;8.53;6.27;;;5.00;99.90;;;;;;7391061;19;20460;-74
2023/01/18 03:02:10;;;;;;;9.27;5.93;;;5.00;99.90;;;;;;7386596;19;20139;-74
2023/01/18 03:04:40;;;;;;;9.70;6.27;;;4.90;99.90;;;;;;7389363;19;20217;-74
2023/01/18 03:07:51;;;;;;;9.93;7.10;;;4.90;99.90;;;;;;7390977;19;20135;-74
2023/01/18 03:10:16;;;;;;;9.30;6.50;;;4.90;99.90;;;;;;7388426;19;20238;-74
2023/01/18 03:13:10;;;;;;;9.57;6.73;;;5.00;99.90;;;;;;7384390;19;20298;-74
2023/01/18 03:15:50;;;;;;;7.30;6.00;;;4.90;99.90;;;;;;7391004;19;20139;-73
2023/01/18 03:18:59;;;;;;;9.57;6.47;;;5.00;99.90;;;;;;7390051;19;20134;-73
2023/01/18 03:21:47;;;;;;;9.17;6.80;;;4.90;99.90;;;;;;7385917;19;20682;-74
2023/01/18 03:24:15;;;;;;;10.10;6.60;;;4.80;99.90;;;;;;7390271;19;20789;-74
2023/01/18 03:26:47;;;;;;;9.63;6.87;;;4.80;99.90;;;;;;7390689;19;20148;-75
2023/01/18 03:35:14;;;;;;;8.80;6.40;;;4.90;99.90;;;;;;7390634;19;20142;-73
2023/01/18 03:37:44;;;;;;;9.47;7.20;;;4.80;99.90;;;;;;7388701;19;20154;-74
2023/01/18 03:40:18;;;;;;;8.77;6.33;;;4.80;99.90;;;;;;7388436;19;20579;-74
2023/01/18 03:43:10;;;;;;;7.03;5.67;;;4.80;99.90;;;;;;7390931;19;20477;-74
2023/01/18 03:45:43;;;;;;;9.40;6.00;;;4.80;99.90;;;;;;7386790;19;20137;-75
2023/01/18 03:48:10;;;;;;;6.47;5.13;;;4.80;99.90;;;;;;7386330;19;20142;-74
2023/01/18 03:50:48;;;;;;;8.13;6.43;;;4.80;99.90;;;;;;7387112;19;20135;-74
2023/01/18 03:53:23;;;;;;;8.20;6.13;;;4.80;99.90;;;;;;7388866;19;20133;-73
2023/01/18 03:55:55;;;;;;;9.23;6.90;;;4.70;99.90;;;;;;7388699;19;20138;-75
2023/01/18 03:58:29;;;;;;;8.70;6.33;;;4.70;99.90;;;;;;7390045;19;20154;-74
2023/01/18 04:00:55;;;;;;;8.37;6.17;;;4.80;99.90;;;;;;7382964;19;20178;-75
2023/01/18 04:03:21;;;;;;;8.70;6.57;;;4.70;99.90;;;;;;7387467;19;20172;-73
2023/01/18 04:05:46;;;;;;;10.27;6.47;;;4.60;99.90;;;;;;7386708;19;20506;-73
2023/01/18 04:08:13;;;;;;;9.37;6.37;;;4.60;99.90;;;;;;7386639;19;20261;-74
2023/01/18 04:10:40;;;;;;;8.67;6.60;;;4.60;99.90;;;;;;7383663;19;20135;-75
2023/01/18 04:13:06;;;;;;;9.07;6.53;;;4.60;99.90;;;;;;7387951;19;20155;-75
2023/01/18 04:15:31;;;;;;;8.90;5.80;;;4.60;99.90;;;;;;7380794;19;20118;-73
2023/01/18 04:17:57;;;;;;;9.40;7.00;;;4.60;99.90;;;;;;7385085;19;20147;-73
2023/01/18 04:20:23;;;;;;;10.20;7.23;;;4.50;99.90;;;;;;7387143;19;20199;-73
2023/01/18 04:22:53;;;;;;;7.97;6.40;;;4.50;99.90;;;;;;7385930;19;20536;-74
2023/01/18 04:25:19;;;;;;;8.37;6.30;;;4.50;99.90;;;;;;7384610;19;20142;-73
2023/01/18 04:27:45;;;;;;;9.30;6.70;;;4.40;99.90;;;;;;7385492;19;20143;-75
2023/01/18 04:30:11;;;;;;;8.17;6.17;;;4.30;99.90;;;;;;7384662;19;20213;-74
2023/01/18 04:32:38;;;;;;;8.30;6.17;;;4.30;99.90;;;;;;7384633;19;20139;-74
2023/01/18 04:35:05;;;;;;;8.80;6.33;;;4.30;99.90;;;;;;7383642;19;20230;-73
2023/01/18 04:37:32;;;;;;;10.10;7.23;;;4.30;99.90;;;;;;7383494;19;20156;-74
2023/01/18 04:39:58;;;;;;;8.47;6.50;;;4.40;99.90;;;;;;7381462;19;20134;-73
2023/01/18 04:42:24;;;;;;;9.07;6.63;;;4.40;99.90;;;;;;7385424;19;20146;-74
2023/01/18 04:44:51;;;;;;;10.00;7.27;;;4.50;99.90;;;;;;7384917;19;20139;-73
2023/01/18 04:47:17;;;;;;;10.10;6.73;;;4.50;99.90;;;;;;7387559;19;20653;-74
2023/01/18 04:49:43;;;;;;;8.10;6.20;;;4.40;99.90;;;;;;7386146;19;20138;-73
2023/01/18 04:52:09;;;;;;;7.53;6.10;;;4.30;99.90;;;;;;7384836;19;20135;-74
2023/01/18 04:54:34;;;;;;;10.53;6.53;;;4.30;99.90;;;;;;7387144;19;20138;-74
2023/01/18 04:57:00;;;;;;;7.50;6.00;;;4.40;99.90;;;;;;7383506;19;20468;-74
2023/01/18 04:59:27;;;;;;;8.60;7.07;;;4.20;99.90;;;;;;7390542;19;20482;-74
2023/01/18 05:01:53;;;;;;;10.10;6.77;;;4.20;99.90;;;;;;7388313;19;20143;-74
2023/01/18 05:04:19;;;;;;;8.00;5.90;;;4.30;99.90;;;;;;7391520;19;20150;-74
2023/01/18 05:06:47;;;;;;;8.00;6.30;;;4.30;99.90;;;;;;7390341;19;20676;-75
2023/01/18 05:09:13;;;;;;;9.10;5.93;;;4.40;99.90;;;;;;7391299;19;20150;-73
2023/01/18 05:11:39;;;;;;;8.87;6.00;;;4.40;99.90;;;;;;7387875;19;20155;-74
2023/01/18 05:14:05;;;;;;;7.83;6.03;;;4.30;99.90;;;;;;7392975;19;20162;-75
2023/01/18 05:16:30;;;;;;;7.47;5.57;;;4.30;99.90;;;;;;7391384;19;20187;-74
2023/01/18 05:18:56;;;;;;;6.57;4.77;;;4.30;99.90;;;;;;7389991;19;20138;-74
2023/01/18 05:21:22;;;;;;;6.63;5.00;;;4.20;99.90;;;;;;7391829;19;20154;-73
2023/01/18 05:23:47;;;;;;;5.73;4.43;;;4.30;99.90;;;;;;7390505;19;20151;-75
2023/01/18 05:26:20;;;;;;;5.27;4.20;;;4.10;99.90;;;;;;7391472;19;20142;-74
2023/01/18 05:28:46;;;;;;;5.07;4.03;;;4.00;99.90;;;;;;7393531;19;20139;-74
2023/01/18 05:31:14;;;;;;;5.03;4.10;;;4.00;99.90;;;;;;7390095;19;20146;-74
2023/01/18 05:33:40;;;;;;;6.37;4.50;;;4.00;99.90;;;;;;7390569;19;20221;-75
2023/01/18 05:36:06;;;;;;;5.33;4.07;;;4.10;99.90;;;;;;7393709;19;20135;-74
2023/01/18 05:38:32;;;;;;;4.70;3.63;;;4.30;99.90;;;;;;7391346;19;20135;-74
2023/01/18 05:40:58;;;;;;;4.97;3.60;;;4.30;99.90;;;;;;7392218;19;20142;-74
2023/01/18 05:43:25;;;;;;;5.00;3.10;;;4.20;99.90;;;;;;7388262;19;20154;-74
2023/01/18 05:45:51;;;;;;;3.77;3.37;;;4.30;99.90;;;;;;7391859;19;20138;-74
2023/01/18 05:48:17;;;;;;;3.80;3.17;;;4.10;99.90;;;;;;7389459;19;20178;-73
2023/01/18 05:50:45;;;;;;;3.73;3.07;;;4.20;99.90;;;;;;7388426;19;20149;-75
2023/01/18 05:53:13;;;;;;;4.50;3.10;;;4.30;99.90;;;;;;7393104;19;20574;-75
2023/01/18 05:55:39;;;;;;;4.47;2.90;;;4.30;99.90;;;;;;7391317;19;20139;-75
2023/01/18 05:58:05;;;;;;;3.50;3.10;;;4.40;99.90;;;;;;7391034;19;20166;-73
2023/01/18 06:00:31;;;;;;;6.13;3.23;;;4.10;99.90;;;;;;7386480;19;20217;-73
2023/01/18 06:02:57;;;;;;;4.33;3.00;;;4.10;99.90;;;;;;7389449;19;20146;-74
2023/01/18 06:05:24;;;;;;;3.90;3.20;;;4.00;99.90;;;;;;7390031;19;20145;-74
2023/01/18 06:07:50;;;;;;;3.13;2.77;;;4.10;99.90;;;;;;7389703;19;20138;-74
2023/01/18 06:10:17;;;;;;;3.60;2.60;;;4.10;99.90;;;;;;7386177;19;20568;-74
2023/01/18 06:12:43;;;;;;;4.50;2.87;;;4.20;99.90;;;;;;7389762;19;20599;-74
2023/01/18 06:15:10;;;;;;;3.80;2.90;;;4.10;99.90;;;;;;7388520;19;20165;-76
2023/01/18 06:17:36;;;;;;;4.03;3.13;;;4.20;99.90;;;;;;7389459;19;20162;-74
2023/01/18 06:20:03;;;;;;;5.30;3.10;;;4.20;99.90;;;;;;7388724;19;20213;-75
2023/01/18 06:22:29;;;;;;;4.60;2.87;;;4.30;99.90;;;;;;7390547;19;20157;-75
2023/01/18 06:24:55;;;;;;;4.17;2.80;;;4.30;99.90;;;;;;7389707;19;20139;-73
2023/01/18 06:27:21;;;;;;;5.67;3.20;;;4.30;99.90;;;;;;7387768;19;20146;-74
2023/01/18 06:29:46;;;;;;;3.37;3.07;;;4.30;99.90;;;;;;7388123;19;20544;-74
2023/01/18 06:32:12;;;;;;;3.90;3.07;;;4.10;99.90;;;;;;7383040;19;20139;-73
2023/01/18 06:34:38;;;;;;;3.40;2.90;;;4.20;99.90;;;;;;7385574;19;20138;-74
2023/01/18 06:37:04;;;;;;;4.30;3.00;;;4.30;99.90;;;;;;7385013;19;20130;-74
2023/01/18 06:39:29;;;;;;;4.40;3.47;;;4.40;99.90;;;;;;7386971;19;20487;-75
2023/01/18 06:41:56;;;;;;;3.33;2.47;;;4.40;99.90;;;;;;7387149;19;20212;-74
2023/01/18 06:44:22;;;;;;;3.07;2.50;;;4.40;99.90;;;;;;7385831;19;20138;-75
2023/01/18 06:46:47;;;;;;;3.70;2.70;;;4.30;99.90;;;;;;7384194;19;20191;-74
2023/01/18 06:49:13;;;;;;;5.57;3.40;;;4.20;99.90;;;;;;7385786;19;20625;-74
2023/01/18 06:51:40;;;;;;;6.37;2.70;;;4.10;99.90;;;;;;7379733;19;20242;-74
2023/01/18 06:54:06;;;;;;;3.17;2.80;;;4.10;99.90;;;;;;7381639;19;20760;-73
2023/01/18 06:56:31;;;;;;;4.97;3.37;;;4.00;99.90;;;;;;7388644;19;20134;-74
2023/01/18 06:58:59;;;;;;;4.87;3.27;;;4.10;99.90;;;;;;7388610;19;20131;-73
2023/01/18 07:01:25;;;;;;;5.00;3.17;;;4.10;99.90;;;;;;7387417;19;20151;-73
2023/01/18 07:03:52;;;;;;;4.43;3.67;;;4.10;99.90;;;;;;7391507;19;20217;-73
2023/01/18 07:06:18;;;;;;;6.50;3.93;;;4.00;99.90;;;;;;7393261;19;20156;-73
2023/01/18 07:08:44;;;;;;;4.90;3.43;;;4.00;99.90;;;;;;7391027;19;20186;-74
2023/01/18 07:11:11;;;;;;;4.33;3.50;;;4.10;99.90;;;;;;7387016;19;20138;-74
2023/01/18 07:13:42;;;;;;;5.73;4.40;;;4.30;99.90;;;;;;7388151;19;20473;-74
2023/01/18 07:16:12;;;;;;;6.73;4.63;;;4.40;99.90;;;;;;7388335;19;20181;-74
2023/01/18 07:18:42;;;;;;;6.13;4.17;;;4.40;99.90;;;;;;7389609;19;20155;-73
2023/01/18 07:21:09;;;;;;;5.97;4.57;;;4.40;99.90;;;;;;7386992;19;20155;-74
2023/01/18 07:23:37;;;;;;;5.87;4.40;;;4.30;99.90;;;;;;7387544;19;20225;-75
2023/01/18 07:26:05;;;;;;;5.67;4.30;;;4.20;99.90;;;;;;7389900;19;20639;-73
2023/01/18 07:28:34;;;;;;;8.03;5.50;;;4.30;99.90;;;;;;7385780;19;20213;-74
2023/01/18 07:31:00;;;;;;;5.10;4.03;;;4.30;99.90;;;;;;7386612;19;20163;-74
2023/01/18 07:33:27;;;;;;;5.53;4.40;;;4.30;99.90;;;;;;7389672;19;20142;-73
2023/01/18 07:35:54;;;;;;;7.27;4.77;;;4.40;99.90;;;;;;7388610;19;20146;-74
2023/01/18 07:38:21;;;;;;;7.17;5.20;;;4.30;99.90;;;;;;7390031;19;20134;-74
2023/01/18 07:40:47;;;;;;;6.17;4.00;;;4.40;99.90;;;;;;7392596;19;20192;-74
2023/01/18 07:43:14;;;;;;;4.87;3.87;;;4.30;99.90;;;;;;7388544;19;20659;-74
2023/01/18 07:45:41;;;;;;;6.93;3.73;;;4.40;99.90;;;;;;7387976;19;20185;-74
2023/01/18 07:48:07;;;;;;;5.27;4.13;;;4.40;99.90;;;;;;7387810;19;20127;-75
2023/01/18 07:50:33;;;;;;;8.07;4.33;;;4.50;99.90;;;;;;7386471;19;20159;-73
2023/01/18 07:53:05;;;;;;;5.97;4.93;;;4.50;99.90;;;;;;7388771;19;20158;-73
2023/01/18 07:55:32;;;;;;;4.43;3.90;;;4.50;99.90;;;;;;7387876;19;20175;-75
2023/01/18 07:57:58;;;;;;;5.23;4.13;;;4.40;99.90;;;;;;7388567;19;20147;-74
2023/01/18 08:00:25;;;;;;;5.20;4.30;;;4.20;99.90;;;;;;7383708;19;20182;-73
2023/01/18 08:02:52;;;;;;;5.80;4.63;;;4.20;99.90;;;;;;7387801;19;20134;-75
2023/01/18 08:05:25;;;;;;;5.87;4.77;;;4.20;99.90;;;;;;7385792;19;20138;-74
2023/01/18 08:07:52;;;;;;;7.30;4.73;;;4.30;99.90;;;;;;7386272;19;20134;-74
2023/01/18 08:10:19;;;;;;;6.77;4.53;;;4.00;99.90;;;;;;7384500;19;20173;-75
2023/01/18 08:12:45;;;;;;;5.57;4.27;;;3.80;99.90;;;;;;7387288;19;20143;-74
2023/01/18 08:15:11;;;;;;;5.93;3.90;;;4.10;99.90;;;;;;7388313;19;20153;-74
2023/01/18 08:17:38;;;;;;;6.07;4.90;;;4.10;99.90;;;;;;7388373;19;20151;-74
2023/01/18 08:20:05;;;;;;;7.60;5.87;;;4.20;99.90;;;;;;7387369;19;20130;-74
2023/01/18 08:22:31;;;;;;;9.73;5.93;;;4.20;99.90;;;;;;7386082;19;20494;-74
2023/01/18 08:24:57;;;;;;;6.17;5.13;;;4.30;99.90;;;;;;7385025;19;20130;-75
2023/01/18 08:27:22;;;;;;;6.80;4.33;;;4.00;99.90;;;;;;7383638;19;20162;-73
2023/01/18 08:29:48;;;;;;;6.73;4.33;;;3.90;99.90;;;;;;7386109;19;20142;-77
2023/01/18 08:32:14;;;;;;;6.10;4.40;;;4.10;99.90;;;;;;7388851;19;20143;-74
2023/01/18 08:34:40;;;;;;;7.43;5.10;;;3.80;99.90;;;;;;7393167;19;20159;-74
2023/01/18 08:37:05;;;;;;;5.60;4.17;;;4.10;99.90;;;;;;7394854;19;20154;-74
2023/01/18 08:39:31;;;;;;;6.00;4.43;;;4.10;99.90;;;;;;7394974;19;20492;-74
2023/01/18 08:41:57;;;;;;;6.47;4.30;;;4.30;99.90;;;;;;7394684;19;20146;-74
2023/01/18 08:44:23;;;;;;;8.87;5.67;;;4.50;99.90;;;;;;7394555;19;20591;-75
2023/01/18 08:46:49;;;;;;;8.43;5.93;;;4.40;99.90;;;;;;7392232;19;20141;-74
2023/01/18 08:49:15;;;;;;;5.43;4.20;;;4.50;99.90;;;;;;7395438;19;20146;-74
2023/01/18 08:51:41;;;;;;;5.10;3.80;;;4.60;99.90;;;;;;7389677;19;20134;-73
2023/01/18 08:54:07;;;;;;;4.80;3.97;;;4.40;99.90;;;;;;7393812;19;20161;-74
2023/01/18 08:56:33;;;;;;;4.67;3.80;;;4.30;99.90;;;;;;7393884;19;20147;-75
2023/01/18 08:58:59;;;;;;;7.97;4.57;;;4.40;99.90;;;;;;7391058;19;20508;-74
2023/01/18 09:01:25;;;;;;;5.50;3.70;;;4.40;99.90;;;;;;7390383;19;20519;-74
2023/01/18 09:03:56;;;;;;;5.93;4.27;;;4.30;99.90;;;;;;7391837;19;20158;-73
2023/01/18 09:06:23;;;;;;;7.37;5.20;;;4.10;99.90;;;;;;7393421;19;20142;-73
2023/01/18 09:08:49;;;;;;;5.27;3.50;;;4.30;99.90;;;;;;7392359;19;20157;-74
2023/01/18 09:11:16;;;;;;;5.37;3.70;;;4.20;99.90;;;;;;7391217;19;20492;-74
2023/01/18 09:13:42;;;;;;;4.43;3.40;;;4.30;99.90;;;;;;7393515;19;20146;-74
2023/01/18 09:16:09;;;;;;;6.60;3.67;;;4.20;99.90;;;;;;7391619;19;20458;-74
2023/01/18 09:18:37;;;;;;;7.20;4.80;;;4.30;99.90;;;;;;7392165;19;20683;-73
2023/01/18 09:21:08;;;;;;;5.53;4.07;;;4.20;99.90;;;;;;7393208;19;20146;-73
2023/01/18 09:23:35;;;;;;;6.77;3.83;;;4.20;99.90;;;;;;7391325;19;20158;-74
2023/01/18 09:26:11;;;;;;;5.53;4.00;;;4.40;99.90;;;;;;7392141;19;20139;-74
2023/01/18 09:28:37;;;;;;;7.13;4.30;;;4.40;99.90;;;;;;7393128;19;20146;-75
2023/01/18 09:31:07;;;;;;;4.70;3.53;;;4.40;99.90;;;;;;7389653;19;20571;-74
2023/01/18 09:33:34;;;;;;;4.97;4.10;;;4.30;99.90;;;;;;7391583;19;20147;-75
2023/01/18 09:36:03;;;;;;;6.07;3.47;;;4.20;99.90;;;;;;7395002;19;20146;-74
2023/01/18 09:38:29;;;;;;;5.70;3.97;;;4.30;99.90;;;;;;7394392;19;20612;-73
2023/01/18 09:40:55;;;;;;;5.07;4.00;;;4.40;99.90;;;;;;7392926;19;20139;-73
2023/01/18 09:43:30;;;;;;;5.83;4.63;;;4.40;99.90;;;;;;7391224;19;20628;-73
2023/01/18 09:45:58;;;;;;;5.47;3.90;;;4.60;99.90;;;;;;7387142;19;20221;-73
2023/01/18 09:48:38;;;;;;;9.40;4.47;;;4.60;99.90;;;;;;7392688;19;20127;-73
2023/01/18 09:51:12;;;;;;;5.37;4.57;;;4.70;99.90;;;;;;7389867;19;20229;-75
2023/01/18 09:53:58;;;;;;;5.43;3.77;;;4.70;99.90;;;;;;7392629;19;20146;-74
2023/01/18 09:56:35;;;;;;;4.77;3.60;;;4.70;99.90;;;;;;7396395;19;20248;-73
2023/01/18 09:59:27;;;;;;;6.37;4.50;;;4.70;99.90;;;;;;7391975;19;20131;-73
2023/01/18 10:01:55;;;;;;;7.90;5.03;;;4.70;99.90;;;;;;7390283;19;20147;-76
2023/01/18 10:04:35;;;;;;;4.77;3.80;;;4.50;99.90;;;;;;7391311;19;20218;-73
2023/01/18 10:07:15;;;;;;;5.53;3.47;;;4.80;99.90;;;;;;7391891;19;20590;-74
2023/01/18 10:09:48;;;;;;;6.00;3.87;;;4.50;99.90;;;;;;7392943;19;20602;-74
2023/01/18 10:12:57;;;;;;;6.20;4.13;;;4.60;99.90;;;;;;7391470;19;20476;-74
2023/01/18 10:15:28;;;;;;;6.90;4.77;;;4.70;99.90;;;;;;7391598;19;20214;-74
2023/01/18 10:17:56;;;;;;;6.10;4.37;;;4.50;99.90;;;;;;7389658;19;20605;-74
2023/01/18 10:20:41;;;;;;;4.57;3.87;;;4.60;99.90;;;;;;7393074;19;20126;-73
2023/01/18 10:23:23;;;;;;;7.30;4.23;;;4.50;99.90;;;;;;7398771;19;20127;-72
2023/01/18 10:25:54;;;;;;;6.77;4.03;;;4.50;99.90;;;;;;7390460;19;20115;-74
2023/01/18 10:28:38;;;;;;;4.07;3.10;;;4.50;99.90;;;;;;7397149;19;20138;-75
2023/01/18 10:31:28;;;;;;;5.07;3.60;;;4.80;99.90;;;;;;7391058;19;20190;-74
2023/01/18 10:33:57;;;;;;;7.23;3.90;;;4.90;99.90;;;;;;7392040;19;20138;-76
2023/01/18 10:36:40;;;;;;;8.83;5.67;;;4.90;99.90;;;;;;7389704;19;20127;-74
2023/01/18 10:39:29;;;;;;;5.73;4.07;;;4.60;99.90;;;;;;7391738;19;20248;-73
2023/01/18 10:41:59;;;;;;;5.43;3.57;;;4.60;99.90;;;;;;7392842;19;20131;-73
2023/01/18 10:44:26;;;;;;;4.83;4.07;;;4.60;99.90;;;;;;7389185;19;20150;-73
2023/01/18 10:46:59;;;;;;;8.00;4.37;;;4.60;99.90;;;;;;7393123;19;20583;-73
2023/01/18 10:49:37;;;;;;;6.03;4.00;;;4.50;99.90;;;;;;7391776;19;20166;-74
2023/01/18 10:52:25;;;;;;;8.30;3.80;;;4.60;99.90;;;;;;7391172;19;20610;-71
2023/01/18 10:55:00;;;;;;;6.37;3.60;;;4.30;99.90;;;;;;7389045;19;20143;-74
2023/01/18 10:57:33;;;;;;;5.43;3.60;;;4.40;99.90;;;;;;7388736;19;20586;-75
2023/01/18 10:59:59;;;;;;;7.73;4.10;;;4.40;99.90;;;;;;7391113;19;20231;-74
2023/01/18 11:02:34;;;;;;;10.53;4.13;;;4.60;99.90;;;;;;7392663;19;20134;-73
2023/01/18 11:05:18;;;;;;;6.90;4.07;;;4.50;99.90;;;;;;7395905;19;20134;-75
2023/01/18 11:07:44;;;;;;;6.80;4.67;;;4.60;99.90;;;;;;7390491;19;20131;-74
2023/01/18 11:10:40;;;;;;;8.40;4.53;;;4.70;99.90;;;;;;7390407;19;20256;-73
2023/01/18 11:13:37;;;;;;;6.83;4.50;;;4.70;99.90;;;;;;7390102;19;20149;-73
2023/01/18 11:16:07;;;;;;;5.27;3.90;;;4.60;99.90;;;;;;7390427;19;20141;-74
2023/01/18 11:18:33;;;;;;;8.43;4.90;;;4.60;99.90;;;;;;7390482;19;20510;-73
2023/01/18 11:20:59;;;;;;;6.77;4.30;;;4.60;99.90;;;;;;7391856;19;20344;-73
2023/01/18 11:23:34;;;;;;;6.10;3.70;;;4.70;99.90;;;;;;7390512;19;20451;-74
2023/01/18 11:26:13;;;;;;;5.93;3.40;;;4.80;99.90;;;;;;7392735;19;20131;-74
2023/01/18 11:28:48;;;;;;;5.53;4.00;;;4.70;99.90;;;;;;7390865;19;20131;-74
2023/01/18 11:31:19;;;;;;;8.43;3.83;;;4.50;99.90;;;;;;7387556;19;20155;-74
2023/01/18 11:33:56;;;;;;;11.03;5.43;;;4.60;99.90;;;;;;7392297;19;20140;-74
2023/01/18 11:36:42;;;;;;;6.37;4.10;;;4.70;99.90;;;;;;7395219;19;20138;-73
2023/01/18 11:39:32;;;;;;;6.17;3.47;;;4.90;99.90;;;;;;7388922;19;20852;-74
2023/01/18 11:42:34;;;;;;;7.63;3.87;;;5.00;99.90;;;;;;7389498;19;20575;-73
2023/01/18 11:45:14;;;;;;;5.27;3.87;;;5.00;99.90;;;;;;7389655;19;20142;-73
2023/01/18 11:47:55;;;;;;;6.97;3.97;;;5.00;99.90;;;;;;7388443;19;20149;-74
2023/01/18 11:50:24;;;;;;;5.47;3.50;;;4.90;99.90;;;;;;7389217;19;20457;-74
2023/01/18 11:53:02;;;;;;;6.07;3.57;;;4.90;99.90;;;;;;7388388;19;20138;-72
2023/01/18 11:55:54;;;;;;;4.53;3.00;;;4.90;99.90;;;;;;7387198;19;20154;-73
2023/01/18 11:58:27;;;;;;;7.70;3.20;;;4.80;99.90;;;;;;7384881;19;20137;-73
2023/01/18 12:01:20;;;;;;;6.33;3.37;;;4.80;99.90;;;;;;7383453;19;20146;-73
2023/01/18 12:04:05;;;;;;;3.90;3.03;;;4.80;99.90;;;;;;7385661;19;20126;-74
2023/01/18 12:06:47;;;;;;;6.83;3.40;;;5.10;99.90;;;;;;7387642;19;20138;-75
2023/01/18 12:09:40;;;;;;;5.17;3.10;;;5.30;99.90;;;;;;7393382;19;20206;-74
2023/01/18 12:12:12;;;;;;;8.30;2.90;;;5.70;99.90;;;;;;7394279;19;20123;-74
2023/01/18 12:15:12;;;;;;;5.93;3.10;;;5.70;99.90;;;;;;7400261;19;20123;-74
2023/01/18 12:17:51;;;;;;;3.97;2.77;;;5.90;99.90;;;;;;7395799;19;20229;-73
2023/01/18 12:20:42;;;;;;;3.27;2.40;;;5.80;99.90;;;;;;7395411;19;20148;-74
2023/01/18 12:23:41;;;;;;;6.67;3.20;;;5.60;99.90;;;;;;7394232;19;20141;-74
2023/01/18 12:26:48;;;;;;;4.67;3.10;;;5.80;99.90;;;;;;7396432;19;20142;-74
2023/01/18 12:29:41;;;;;;;4.27;2.70;;;6.00;99.90;;;;;;7401068;19;20505;-73
2023/01/18 12:32:24;;;;;;;5.57;2.70;;;5.70;99.90;;;;;;7392591;19;20183;-74
2023/01/18 12:35:24;;;;;;;3.87;2.77;;;5.50;99.90;;;;;;7392323;19;20138;-74
2023/01/18 12:38:06;;;;;;;6.23;2.77;;;5.40;99.90;;;;;;7390669;19;20222;-73
2023/01/18 12:41:10;;;;;;;4.87;2.83;;;5.30;99.90;;;;;;7395668;19;20123;-74
2023/01/18 12:43:45;;;;;;;5.00;2.90;;;5.00;99.90;;;;;;7393287;19;20201;-76
2023/01/18 12:46:33;;;;;;;5.27;3.50;;;5.10;99.90;;;;;;7393813;19;20137;-74
2023/01/18 12:49:17;;;;;;;5.10;2.83;;;5.20;99.90;;;;;;7395906;19;20581;-73
2023/01/18 12:51:46;;;;;;;5.43;3.13;;;5.10;99.90;;;;;;7391605;19;20135;-74
2023/01/18 12:54:25;;;;;;;3.83;2.80;;;4.80;99.90;;;;;;7394717;19;20147;-73
2023/01/18 12:56:55;;;;;;;5.27;3.60;;;4.90;99.90;;;;;;7389879;19;20134;-73
2023/01/18 12:59:34;;;;;;;5.60;2.93;;;4.90;99.90;;;;;;7392320;19;20147;-73
2023/01/18 13:02:28;;;;;;;5.30;3.47;;;4.90;99.90;;;;;;7392018;19;20134;-74
2023/01/18 13:05:20;;;;;;;9.93;3.40;;;4.90;99.90;;;;;;7391239;19;20194;-73
2023/01/18 13:07:57;;;;;;;5.47;3.03;;;4.90;99.90;;;;;;7391946;19;20138;-74
2023/01/18 13:10:25;;;;;;;3.83;2.70;;;4.90;99.90;;;;;;7395521;19;20574;-74
2023/01/18 13:12:53;;;;;;;5.37;2.93;;;5.00;99.90;;;;;;7392550;19;20138;-74
2023/01/18 13:15:41;;;;;;;5.17;2.70;;;5.20;99.90;;;;;;7391463;19;20167;-74
2023/01/18 13:18:14;;;;;;;6.67;3.00;;;5.50;99.90;;;;;;7392336;19;20138;-74
2023/01/18 13:20:59;;;;;;;4.83;2.87;;;5.70;99.90;;;;;;7389954;19;20134;-74
2023/01/18 13:23:43;;;;;;;4.10;2.97;;;5.50;99.90;;;;;;7392422;19;20142;-74
2023/01/18 13:26:24;;;;;;;5.13;2.70;;;5.30;99.90;;;;;;7391671;19;20122;-74
2023/01/18 13:29:09;;;;;;;3.80;2.33;;;5.10;99.90;;;;;;7392964;19;20138;-74
2023/01/18 13:31:36;;;;;;;6.10;2.70;;;5.00;99.90;;;;;;7389341;19;20177;-74
2023/01/18 13:34:03;;;;;;;3.60;2.73;;;5.10;99.90;;;;;;7389572;19;20162;-74
2023/01/18 13:36:43;;;;;;;4.23;2.43;;;5.10;99.90;;;;;;7391568;19;20206;-74
2023/01/18 13:39:18;;;;;;;4.27;2.23;;;5.20;99.90;;;;;;7393332;19;20134;-74
2023/01/18 13:42:07;;;;;;;3.87;2.60;;;5.30;99.90;;;;;;7391395;19;20130;-73
2023/01/18 13:44:44;;;;;;;8.13;3.40;;;5.20;99.90;;;;;;7388259;19;20127;-74
2023/01/18 13:47:38;;;;;;;6.17;3.13;;;5.00;99.90;;;;;;7391669;19;20172;-74
2023/01/18 13:50:24;;;;;;;4.90;2.53;;;5.10;99.90;;;;;;7392103;19;20141;-74
2023/01/18 13:53:12;;;;;;;4.07;2.70;;;5.10;99.90;;;;;;7391853;19;20225;-74
2023/01/18 13:55:53;;;;;;;5.00;3.00;;;5.20;99.90;;;;;;7393478;19;20130;-72